Time;durP1;ratioP1;P1;durP2;ratioP2;P2;SDS_P1;SDS_P2;PMS_P1;PMS_P2;Temp;Humidity;BMP_temperature;BMP_pressure;BME280_temperature;BME280_humidity;BME280_pressure;Samples;Min_cycle;Max_cycle;Signal;HPM_P1;HPM_P2
2023/04/19 00:02:24;;;;;;;13.20;9.90;;;11.00;99.90;;;;;;5039142;28;20199;-77
2023/04/19 00:04:49;;;;;;;14.23;9.70;;;11.00;99.90;;;;;;5039141;28;20672;-77
2023/04/19 00:07:17;;;;;;;12.90;10.73;;;11.00;99.90;;;;;;5038613;28;20172;-77
2023/04/19 00:09:43;;;;;;;12.80;10.27;;;11.00;99.90;;;;;;5038422;28;20177;-77
2023/04/19 00:12:08;;;;;;;12.00;9.93;;;11.00;99.90;;;;;;5038917;28;20195;-78
2023/04/19 00:14:34;;;;;;;13.37;10.00;;;11.00;99.90;;;;;;5039576;28;20219;-77
2023/04/19 00:16:59;;;;;;;14.13;10.50;;;11.00;99.90;;;;;;5040260;28;20177;-77
2023/04/19 00:19:25;;;;;;;13.37;10.10;;;10.90;99.90;;;;;;5039240;28;20172;-77
2023/04/19 00:21:51;;;;;;;13.80;9.87;;;10.90;99.90;;;;;;5039418;28;20589;-77
2023/04/19 00:24:17;;;;;;;15.77;10.63;;;10.90;99.90;;;;;;5038196;28;20192;-77
2023/04/19 00:26:43;;;;;;;12.73;10.37;;;10.90;99.90;;;;;;5040336;28;20195;-77
2023/04/19 00:29:09;;;;;;;13.57;9.83;;;10.90;99.90;;;;;;5038559;28;20196;-77
2023/04/19 00:31:34;;;;;;;13.17;10.20;;;10.90;99.90;;;;;;5040895;28;20239;-78
2023/04/19 00:34:00;;;;;;;13.90;10.73;;;10.90;99.90;;;;;;5041182;28;20203;-78
2023/04/19 00:36:26;;;;;;;12.93;10.20;;;10.90;99.90;;;;;;5039893;28;20191;-77
2023/04/19 00:38:51;;;;;;;14.23;10.83;;;10.90;99.90;;;;;;5039722;28;20218;-78
2023/04/19 00:41:17;;;;;;;16.53;11.50;;;10.90;99.90;;;;;;5040358;28;20181;-77
2023/04/19 00:43:43;;;;;;;13.60;10.30;;;10.90;99.90;;;;;;5039720;28;20196;-78
2023/04/19 00:46:08;;;;;;;15.20;10.63;;;10.90;99.90;;;;;;5039316;28;20318;-77
2023/04/19 00:48:37;;;;;;;13.57;10.50;;;10.90;99.90;;;;;;5038603;28;20248;-77
2023/04/19 00:51:03;;;;;;;13.83;10.50;;;10.90;99.90;;;;;;5041110;28;20199;-77
2023/04/19 00:53:29;;;;;;;15.03;11.30;;;10.90;99.90;;;;;;5041440;28;20268;-77
2023/04/19 00:55:58;;;;;;;13.07;10.53;;;10.80;99.90;;;;;;5039618;28;20172;-77
2023/04/19 00:58:24;;;;;;;17.27;10.90;;;10.90;99.90;;;;;;5040784;28;20172;-78
2023/04/19 01:00:50;;;;;;;14.10;11.00;;;10.90;99.90;;;;;;5039465;28;20286;-78
2023/04/19 01:03:15;;;;;;;14.27;10.83;;;10.90;99.90;;;;;;5039087;28;20706;-77
2023/04/19 01:05:41;;;;;;;17.37;11.43;;;10.90;99.90;;;;;;5040323;28;20532;-77
2023/04/19 01:08:07;;;;;;;14.53;10.93;;;10.90;99.90;;;;;;5038590;28;20184;-79
2023/04/19 01:10:32;;;;;;;14.87;11.47;;;10.90;99.90;;;;;;5038215;28;20366;-77
2023/04/19 01:12:58;;;;;;;13.17;10.40;;;10.90;99.90;;;;;;5039606;28;20192;-77
2023/04/19 01:15:24;;;;;;;15.73;11.60;;;10.90;99.90;;;;;;5037442;28;20216;-77
2023/04/19 01:17:50;;;;;;;14.17;11.20;;;11.00;99.90;;;;;;5039768;28;20173;-77
2023/04/19 01:20:15;;;;;;;17.23;11.63;;;10.90;99.90;;;;;;5038664;28;20199;-78
2023/04/19 01:22:41;;;;;;;16.00;11.50;;;10.90;99.90;;;;;;5038610;28;20176;-77
2023/04/19 01:25:07;;;;;;;16.27;10.87;;;10.90;99.90;;;;;;5036445;28;20296;-77
2023/04/19 01:27:33;;;;;;;16.43;11.27;;;10.90;99.90;;;;;;5038265;28;20172;-77
2023/04/19 01:29:59;;;;;;;17.33;11.90;;;11.00;99.90;;;;;;5036883;28;20268;-77
2023/04/19 01:32:27;;;;;;;13.97;11.13;;;11.00;99.90;;;;;;5038632;28;20183;-77
2023/04/19 01:34:52;;;;;;;18.73;11.47;;;11.00;99.90;;;;;;5037297;28;20207;-77
2023/04/19 01:37:18;;;;;;;13.77;11.33;;;11.00;99.90;;;;;;5038601;28;20176;-77
2023/04/19 01:39:43;;;;;;;15.63;11.50;;;11.00;99.90;;;;;;5038265;28;20183;-77
2023/04/19 01:42:09;;;;;;;13.53;11.40;;;11.00;99.90;;;;;;5036455;28;20582;-78
2023/04/19 01:44:35;;;;;;;14.47;11.27;;;11.00;99.90;;;;;;5038924;28;20215;-77
2023/04/19 01:47:00;;;;;;;15.03;11.73;;;11.00;99.90;;;;;;5040279;28;20212;-78
2023/04/19 01:49:26;;;;;;;14.87;10.93;;;11.00;99.90;;;;;;5040972;28;20267;-78
2023/04/19 01:51:51;;;;;;;16.97;11.13;;;11.00;99.90;;;;;;5041665;28;20188;-77
2023/04/19 01:54:17;;;;;;;13.93;11.03;;;11.10;99.90;;;;;;5038734;28;20582;-77
2023/04/19 01:56:42;;;;;;;15.33;11.97;;;11.00;99.90;;;;;;5038566;28;20650;-77
2023/04/19 01:59:08;;;;;;;18.57;11.37;;;11.10;99.90;;;;;;5034889;28;20187;-77
2023/04/19 02:01:34;;;;;;;16.73;10.73;;;11.10;99.90;;;;;;5037084;28;20176;-77
2023/04/19 02:04:01;;;;;;;13.93;10.70;;;11.10;99.90;;;;;;5037266;28;20683;-77
2023/04/19 02:06:26;;;;;;;13.43;10.87;;;11.00;99.90;;;;;;5036282;28;20550;-77
2023/04/19 02:08:52;;;;;;;13.40;11.47;;;11.00;99.90;;;;;;5036171;28;20212;-77
2023/04/19 02:11:17;;;;;;;14.10;10.50;;;11.10;99.90;;;;;;5037837;28;20208;-77
2023/04/19 02:13:43;;;;;;;16.27;10.80;;;11.00;99.90;;;;;;5035815;28;20212;-77
2023/04/19 02:16:10;;;;;;;14.37;10.50;;;11.00;99.90;;;;;;5036517;28;20394;-77
2023/04/19 02:18:39;;;;;;;14.87;10.53;;;11.00;99.90;;;;;;5035652;28;20177;-77
2023/04/19 02:21:06;;;;;;;16.00;11.23;;;11.00;99.90;;;;;;5035622;28;20663;-77
2023/04/19 02:23:32;;;;;;;17.37;10.40;;;10.90;99.90;;;;;;5036292;28;20211;-77
2023/04/19 02:25:57;;;;;;;14.97;10.70;;;10.90;99.90;;;;;;5036944;28;20180;-77
2023/04/19 02:28:23;;;;;;;13.03;10.40;;;10.80;99.90;;;;;;5038380;28;20188;-77
2023/04/19 02:30:49;;;;;;;13.60;10.10;;;10.80;99.90;;;;;;5037812;28;20226;-77
2023/04/19 02:33:14;;;;;;;14.47;9.90;;;10.70;99.90;;;;;;5038575;28;20210;-77
2023/04/19 02:35:40;;;;;;;14.47;10.03;;;10.60;99.90;;;;;;5038014;28;20199;-77
2023/04/19 02:38:06;;;;;;;15.33;10.43;;;10.50;99.90;;;;;;5037641;28;20235;-77
2023/04/19 02:40:31;;;;;;;19.63;11.07;;;10.50;99.90;;;;;;5038505;28;20175;-77
2023/04/19 02:42:57;;;;;;;12.93;10.43;;;10.40;99.90;;;;;;5038263;28;20179;-77
2023/04/19 02:45:23;;;;;;;12.77;10.30;;;10.40;99.90;;;;;;5037143;28;20208;-77
2023/04/19 02:47:48;;;;;;;16.13;11.00;;;10.30;99.90;;;;;;5036989;28;20203;-77
2023/04/19 02:50:16;;;;;;;13.80;10.13;;;10.20;99.90;;;;;;5037834;28;20306;-77
2023/04/19 02:52:42;;;;;;;13.70;11.23;;;10.20;99.90;;;;;;5036937;28;20203;-78
2023/04/19 02:55:08;;;;;;;11.93;9.37;;;10.10;99.90;;;;;;5037758;28;20683;-77
2023/04/19 02:57:33;;;;;;;15.00;11.47;;;10.10;99.90;;;;;;5036818;28;20168;-77
2023/04/19 02:59:59;;;;;;;18.50;10.40;;;9.90;99.90;;;;;;5038647;28;20172;-78
2023/04/19 03:02:25;;;;;;;15.27;10.70;;;9.90;99.90;;;;;;5037762;28;20198;-77
2023/04/19 03:04:51;;;;;;;13.30;10.13;;;9.90;99.90;;;;;;5038312;28;20200;-77
2023/04/19 03:07:17;;;;;;;14.50;10.13;;;9.80;99.90;;;;;;5038696;28;20175;-77
2023/04/19 03:09:43;;;;;;;15.57;10.47;;;9.70;99.90;;;;;;5037093;28;20275;-77
2023/04/19 03:12:08;;;;;;;12.30;10.43;;;9.70;99.90;;;;;;5037094;28;20219;-77
2023/04/19 03:14:34;;;;;;;16.30;11.00;;;9.60;99.90;;;;;;5037697;28;20224;-77
2023/04/19 03:16:59;;;;;;;15.37;10.83;;;9.60;99.90;;;;;;5036974;28;20200;-77
2023/04/19 03:19:25;;;;;;;14.80;11.17;;;9.50;99.90;;;;;;5037115;28;20184;-77
2023/04/19 03:21:50;;;;;;;12.83;9.57;;;9.50;99.90;;;;;;5035864;28;20294;-76
2023/04/19 03:24:18;;;;;;;13.90;10.17;;;9.50;99.90;;;;;;5036474;28;20204;-77
2023/04/19 03:26:44;;;;;;;13.67;9.57;;;9.50;99.90;;;;;;5038781;28;20184;-76
2023/04/19 03:29:09;;;;;;;13.63;9.07;;;9.50;99.90;;;;;;5038622;28;20226;-77
2023/04/19 03:31:35;;;;;;;13.20;10.23;;;9.50;99.90;;;;;;5037388;28;20203;-77
2023/04/19 03:34:01;;;;;;;13.23;9.53;;;9.50;99.90;;;;;;5035744;28;20680;-77
2023/04/19 03:36:27;;;;;;;15.63;10.13;;;9.70;99.90;;;;;;5037222;28;20298;-77
2023/04/19 03:38:53;;;;;;;11.13;9.30;;;9.50;99.90;;;;;;5036598;28;20183;-77
2023/04/19 03:41:21;;;;;;;12.03;9.50;;;9.50;99.90;;;;;;5035630;28;20629;-76
2023/04/19 03:43:46;;;;;;;14.23;9.17;;;9.50;99.90;;;;;;5037140;28;20330;-76
2023/04/19 03:46:12;;;;;;;11.70;7.90;;;9.60;99.90;;;;;;5036185;28;20184;-77
2023/04/19 03:48:37;;;;;;;12.13;8.43;;;9.60;99.90;;;;;;5036361;28;20172;-76
2023/04/19 03:51:03;;;;;;;12.10;7.47;;;9.70;99.90;;;;;;5039838;28;20180;-77
2023/04/19 03:53:28;;;;;;;13.80;7.87;;;9.70;99.90;;;;;;5038436;28;20204;-76
2023/04/19 03:55:54;;;;;;;8.43;5.70;;;9.70;99.90;;;;;;5039846;28;20256;-77
2023/04/19 03:58:20;;;;;;;8.60;6.50;;;9.70;99.90;;;;;;5038102;28;20263;-77
2023/04/19 04:00:46;;;;;;;8.03;6.17;;;9.80;99.90;;;;;;5040004;28;20179;-76
2023/04/19 04:03:11;;;;;;;9.63;6.00;;;9.80;99.90;;;;;;5039815;28;20563;-77
2023/04/19 04:05:37;;;;;;;6.87;5.67;;;9.90;99.90;;;;;;5039102;28;20191;-77
2023/04/19 04:08:02;;;;;;;7.57;5.63;;;9.90;99.90;;;;;;5038390;28;20207;-77
2023/04/19 04:10:28;;;;;;;7.37;5.67;;;9.90;99.90;;;;;;5039075;28;20218;-77
2023/04/19 04:12:54;;;;;;;7.40;5.67;;;9.90;99.90;;;;;;5038106;28;20284;-77
2023/04/19 04:15:19;;;;;;;8.03;6.10;;;10.00;99.90;;;;;;5039226;28;20247;-77
2023/04/19 04:17:45;;;;;;;7.17;5.60;;;10.00;99.90;;;;;;5038009;28;20238;-77
2023/04/19 04:20:12;;;;;;;7.37;6.03;;;10.00;99.90;;;;;;5036944;28;20176;-78
2023/04/19 04:22:47;;;;;;;7.77;5.73;;;10.10;99.90;;;;;;5036891;28;20253;-77
2023/04/19 04:25:14;;;;;;;7.93;5.10;;;10.10;99.90;;;;;;5038032;28;20191;-76
2023/04/19 04:27:41;;;;;;;7.93;5.53;;;10.20;99.90;;;;;;5035085;28;20628;-76
2023/04/19 04:30:08;;;;;;;6.87;5.40;;;10.20;99.90;;;;;;5036277;28;20230;-77
2023/04/19 04:32:37;;;;;;;7.17;5.80;;;10.20;99.90;;;;;;5035948;28;20192;-76
2023/04/19 04:35:03;;;;;;;7.30;5.47;;;10.20;99.90;;;;;;5037035;28;20567;-77
2023/04/19 04:37:32;;;;;;;6.40;4.63;;;10.30;99.90;;;;;;5037501;28;20199;-77
2023/04/19 04:39:59;;;;;;;7.90;5.80;;;10.20;99.90;;;;;;5036433;28;20266;-77
2023/04/19 04:42:25;;;;;;;7.47;5.23;;;10.20;99.90;;;;;;5037458;28;20551;-77
2023/04/19 04:44:51;;;;;;;7.57;5.07;;;10.30;99.90;;;;;;5036813;28;20204;-77
2023/04/19 04:47:17;;;;;;;6.33;4.93;;;10.20;99.90;;;;;;5037113;28;20173;-79
2023/04/19 04:49:42;;;;;;;6.63;4.97;;;10.20;99.90;;;;;;5037353;28;20184;-78
2023/04/19 04:52:08;;;;;;;6.60;5.00;;;10.20;99.90;;;;;;5035782;28;20176;-79
2023/04/19 04:54:34;;;;;;;8.90;4.70;;;10.10;99.90;;;;;;5035324;28;20215;-78
2023/04/19 04:57:00;;;;;;;6.17;4.40;;;10.10;99.90;;;;;;5039447;28;20238;-79
2023/04/19 04:59:26;;;;;;;7.87;4.77;;;10.10;99.90;;;;;;5039632;28;20671;-78
2023/04/19 05:01:51;;;;;;;5.67;4.03;;;10.10;99.90;;;;;;5038459;28;20169;-79
2023/04/19 05:04:18;;;;;;;4.93;3.83;;;10.00;99.90;;;;;;5038184;28;20563;-78
2023/04/19 05:06:43;;;;;;;5.50;3.73;;;10.60;99.90;;;;;;5039539;28;20180;-79
2023/04/19 05:09:10;;;;;;;4.53;3.53;;;10.40;99.90;;;;;;5039505;28;20259;-80
2023/04/19 05:11:35;;;;;;;7.27;4.00;;;9.90;99.90;;;;;;5036932;28;20303;-79
2023/04/19 05:14:01;;;;;;;6.23;3.93;;;9.90;99.90;;;;;;5036365;28;20642;-79
2023/04/19 05:16:27;;;;;;;4.90;4.30;;;9.90;99.90;;;;;;5036408;28;20169;-78
2023/04/19 05:18:53;;;;;;;7.63;4.17;;;9.90;99.90;;;;;;5037647;28;20172;-77
2023/04/19 05:21:18;;;;;;;4.33;3.90;;;9.80;99.90;;;;;;5034102;28;20172;-78
2023/04/19 05:23:44;;;;;;;5.40;3.73;;;9.80;99.90;;;;;;5035603;28;20566;-78
2023/04/19 05:26:14;;;;;;;6.50;4.17;;;9.80;99.90;;;;;;5035882;28;20180;-79
2023/04/19 05:28:40;;;;;;;6.17;4.00;;;9.80;99.90;;;;;;5033275;28;20176;-77
2023/04/19 05:31:06;;;;;;;4.93;3.80;;;9.70;99.90;;;;;;5035600;28;20228;-78
2023/04/19 05:33:32;;;;;;;5.53;3.93;;;9.70;99.90;;;;;;5035398;28;20236;-78
2023/04/19 05:35:58;;;;;;;7.30;4.20;;;9.90;99.90;;;;;;5034546;28;20238;-77
2023/04/19 05:38:23;;;;;;;5.27;4.20;;;9.70;99.90;;;;;;5036040;28;20226;-77
2023/04/19 05:40:49;;;;;;;7.03;4.13;;;9.70;99.90;;;;;;5034192;28;20175;-77
2023/04/19 05:43:14;;;;;;;7.13;4.30;;;9.70;99.90;;;;;;5035218;28;20199;-78
2023/04/19 05:45:40;;;;;;;5.27;4.43;;;9.70;99.90;;;;;;5037105;28;20251;-78
2023/04/19 05:48:05;;;;;;;7.53;3.90;;;9.70;99.90;;;;;;5034675;28;20172;-77
2023/04/19 05:50:31;;;;;;;7.03;4.67;;;9.70;99.90;;;;;;5035320;28;20180;-77
2023/04/19 05:52:57;;;;;;;5.50;4.33;;;9.70;99.90;;;;;;5033997;28;20204;-78
2023/04/19 05:55:23;;;;;;;7.50;4.77;;;9.70;99.90;;;;;;5034623;28;20253;-78
2023/04/19 05:57:48;;;;;;;5.60;4.17;;;9.70;99.90;;;;;;5033568;28;20275;-78
2023/04/19 06:00:15;;;;;;;5.60;4.60;;;9.70;99.90;;;;;;5035292;28;20191;-78
2023/04/19 06:02:40;;;;;;;7.37;4.20;;;9.80;99.90;;;;;;5033749;28;20181;-77
2023/04/19 06:05:06;;;;;;;6.00;4.53;;;9.80;99.90;;;;;;5033765;28;20207;-78
2023/04/19 06:07:32;;;;;;;5.20;4.30;;;9.80;99.90;;;;;;5034231;28;20251;-78
2023/04/19 06:09:57;;;;;;;7.23;5.17;;;9.80;99.90;;;;;;5033781;28;20230;-78
2023/04/19 06:12:23;;;;;;;6.83;4.90;;;9.90;99.90;;;;;;5033375;28;20245;-77
2023/04/19 06:14:48;;;;;;;8.87;5.07;;;9.90;99.90;;;;;;5033251;28;20331;-78
2023/04/19 06:17:15;;;;;;;10.93;4.97;;;9.90;99.90;;;;;;5033426;28;20535;-78
2023/04/19 06:19:41;;;;;;;7.03;5.13;;;9.90;99.90;;;;;;5033492;28;20255;-78
2023/04/19 06:22:07;;;;;;;7.50;5.30;;;9.90;99.90;;;;;;5034074;28;20325;-78
2023/04/19 06:24:32;;;;;;;9.50;5.37;;;9.90;99.90;;;;;;5032584;28;20231;-77
2023/04/19 06:26:58;;;;;;;6.43;5.10;;;9.90;99.90;;;;;;5033944;28;20659;-78
2023/04/19 06:29:24;;;;;;;5.83;4.80;;;9.90;99.90;;;;;;5033319;28;20216;-78
2023/04/19 06:31:50;;;;;;;7.60;4.93;;;9.90;99.90;;;;;;5033573;28;20179;-78
2023/04/19 06:34:15;;;;;;;7.07;4.83;;;9.90;99.90;;;;;;5033929;28;20204;-78
2023/04/19 06:36:41;;;;;;;6.50;5.10;;;9.90;99.90;;;;;;5033627;28;20172;-78
2023/04/19 06:39:07;;;;;;;5.83;4.37;;;10.00;99.90;;;;;;5033062;28;20184;-78
2023/04/19 06:41:32;;;;;;;6.90;5.20;;;10.10;99.90;;;;;;5033157;28;20179;-78
2023/04/19 06:43:58;;;;;;;6.10;4.27;;;10.10;99.90;;;;;;5032986;28;20192;-77
2023/04/19 06:46:23;;;;;;;9.63;5.03;;;10.20;99.90;;;;;;5032207;28;20190;-78
2023/04/19 06:48:49;;;;;;;8.00;4.77;;;10.20;99.90;;;;;;5031612;28;20172;-78
2023/04/19 06:51:15;;;;;;;6.50;4.60;;;10.20;99.90;;;;;;5031918;28;20172;-78
2023/04/19 06:53:41;;;;;;;7.97;4.63;;;10.30;99.90;;;;;;5033604;28;20204;-78
2023/04/19 06:56:06;;;;;;;7.03;4.50;;;10.30;99.90;;;;;;5034359;28;20168;-79
2023/04/19 06:58:32;;;;;;;6.73;4.20;;;10.40;99.90;;;;;;5035495;28;20203;-77
2023/04/19 07:00:59;;;;;;;7.77;4.57;;;10.40;99.90;;;;;;5034864;28;20164;-79
2023/04/19 07:03:24;;;;;;;7.00;4.27;;;10.50;99.90;;;;;;5035092;28;20172;-78
2023/04/19 07:05:51;;;;;;;7.23;4.43;;;10.50;99.90;;;;;;5035544;28;20641;-78
2023/04/19 07:08:17;;;;;;;7.17;4.30;;;10.50;99.90;;;;;;5035909;28;20168;-80
2023/04/19 07:10:42;;;;;;;8.00;4.17;;;10.60;99.90;;;;;;5034816;28;20202;-79
2023/04/19 07:13:09;;;;;;;6.47;4.13;;;10.60;99.90;;;;;;5034463;28;20195;-79
2023/04/19 07:15:35;;;;;;;6.50;4.17;;;10.60;99.90;;;;;;5035946;28;20249;-78
2023/04/19 07:18:01;;;;;;;9.93;4.10;;;10.60;99.90;;;;;;5036020;28;20169;-79
2023/04/19 07:20:27;;;;;;;4.97;3.80;;;10.70;99.90;;;;;;5036466;28;20275;-80
2023/04/19 07:22:52;;;;;;;7.90;4.33;;;10.80;99.90;;;;;;5034548;28;20172;-79
2023/04/19 07:25:18;;;;;;;9.20;3.43;;;10.80;99.90;;;;;;5037733;28;20199;-78
2023/04/19 07:27:43;;;;;;;6.97;3.90;;;10.90;98.10;;;;;;5039482;28;20187;-78
2023/04/19 07:30:10;;;;;;;6.43;3.33;;;11.00;99.90;;;;;;5037425;28;20177;-78
2023/04/19 07:32:35;;;;;;;7.00;3.80;;;11.10;99.30;;;;;;5038709;28;20176;-78
2023/04/19 07:35:01;;;;;;;3.93;3.00;;;11.00;98.50;;;;;;5038687;28;20196;-79
2023/04/19 07:37:27;;;;;;;5.00;3.57;;;11.10;99.90;;;;;;5038046;28;20172;-78
2023/04/19 07:39:52;;;;;;;6.90;4.20;;;11.10;99.90;;;;;;5038527;28;20204;-79
2023/04/19 07:42:18;;;;;;;7.77;3.53;;;11.20;85.00;;;;;;5038604;28;20548;-78
2023/04/19 07:44:44;;;;;;;6.13;3.83;;;11.20;64.80;;;;;;5039866;28;20198;-78
2023/04/19 07:47:09;;;;;;;5.50;3.27;;;11.30;92.40;;;;;;5040820;28;20168;-78
2023/04/19 07:49:35;;;;;;;7.17;3.53;;;11.30;76.10;;;;;;5039962;28;20187;-77
2023/04/19 07:52:01;;;;;;;6.07;3.33;;;11.40;52.60;;;;;;5038808;28;20200;-78
2023/04/19 07:54:27;;;;;;;5.07;3.50;;;12.60;13.40;;;;;;5038551;28;20265;-77
2023/04/19 07:56:53;;;;;;;5.60;3.60;;;11.40;41.60;;;;;;5037778;28;20180;-77
2023/04/19 07:59:19;;;;;;;4.83;3.67;;;11.50;36.40;;;;;;5038228;28;20179;-78
2023/04/19 08:01:44;;;;;;;6.33;3.73;;;11.60;50.50;;;;;;5037971;28;20176;-77
2023/04/19 08:04:10;;;;;;;10.13;3.60;;;11.70;15.40;;;;;;5039121;28;20195;-78
2023/04/19 08:06:38;;;;;;;6.70;3.10;;;11.70;19.10;;;;;;5038900;28;20739;-78
2023/04/19 08:09:03;;;;;;;5.30;3.53;;;11.70;14.90;;;;;;5037992;28;20180;-77
2023/04/19 08:11:29;;;;;;;4.10;3.10;;;11.70;1.00;;;;;;5038115;28;20613;-77
2023/04/19 08:13:55;;;;;;;6.70;3.33;;;11.70;18.50;;;;;;5039489;28;20219;-83
2023/04/19 08:16:20;;;;;;;4.70;3.10;;;11.70;7.00;;;;;;5060152;28;20172;-78
2023/04/19 08:18:50;;;;;;;7.17;3.50;;;11.80;1.00;;;;;;5059814;28;20172;-76
2023/04/19 08:21:16;;;;;;;5.93;3.33;;;11.80;1.00;;;;;;5060619;28;20651;-78
2023/04/19 08:23:41;;;;;;;6.70;3.30;;;11.70;1.00;;;;;;5060111;28;20196;-78
2023/04/19 08:26:07;;;;;;;5.20;3.23;;;11.80;1.00;;;;;;5060035;28;20186;-79
2023/04/19 08:28:32;;;;;;;6.10;3.10;;;12.00;1.00;;;;;;5059132;28;20194;-77
2023/04/19 08:30:58;;;;;;;6.00;3.10;;;11.80;1.00;;;;;;5060352;28;20231;-79
2023/04/19 08:33:23;;;;;;;4.30;2.83;;;11.90;1.00;;;;;;5060952;28;20608;-78
2023/04/19 08:35:49;;;;;;;7.83;2.90;;;11.90;1.00;;;;;;5059926;28;20176;-79
2023/04/19 08:38:15;;;;;;;4.23;2.90;;;12.00;1.00;;;;;;5057692;28;20171;-79
2023/04/19 08:40:46;;;;;;;3.20;2.50;;;12.00;1.00;;;;;;5060206;28;20297;-79
2023/04/19 08:43:11;;;;;;;5.50;2.93;;;12.00;1.00;;;;;;5060496;28;20164;-79
2023/04/19 08:45:38;;;;;;;7.63;2.67;;;12.10;1.00;;;;;;5059211;28;20191;-78
2023/04/19 08:48:03;;;;;;;6.23;2.97;;;12.10;1.00;;;;;;5059702;28;20180;-79
2023/04/19 08:50:30;;;;;;;9.27;2.77;;;12.10;1.00;;;;;;5060766;28;20172;-79
2023/04/19 08:52:58;;;;;;;4.47;2.70;;;12.20;1.00;;;;;;5058090;28;20639;-79
2023/04/19 08:55:24;;;;;;;4.20;2.57;;;12.30;1.00;;;;;;5058774;28;20195;-79
2023/04/19 08:57:49;;;;;;;3.53;2.77;;;12.50;1.00;;;;;;5059439;28;20203;-79
2023/04/19 09:00:15;;;;;;;7.43;2.30;;;12.30;1.00;;;;;;5060779;28;20639;-78
2023/04/19 09:02:49;;;;;;;4.83;2.47;;;12.40;1.00;;;;;;5059952;28;20182;-78
2023/04/19 09:05:16;;;;;;;4.47;2.57;;;12.40;1.00;;;;;;5058688;28;20206;-79
2023/04/19 09:07:42;;;;;;;8.50;2.57;;;12.40;1.00;;;;;;5058210;28;20186;-79
2023/04/19 09:10:13;;;;;;;6.83;2.57;;;12.40;1.00;;;;;;5059034;28;20172;-79
2023/04/19 09:12:39;;;;;;;5.33;2.67;;;12.40;1.00;;;;;;5058605;28;20617;-79
2023/04/19 09:15:09;;;;;;;4.57;2.60;;;12.30;1.00;;;;;;5058375;28;20202;-78
2023/04/19 09:17:36;;;;;;;4.00;2.43;;;12.30;1.00;;;;;;5057760;28;20214;-79
2023/04/19 09:20:03;;;;;;;4.50;2.33;;;12.40;1.00;;;;;;5054465;28;20188;-79
2023/04/19 09:22:30;;;;;;;5.27;2.67;;;12.30;1.00;;;;;;5040018;28;20252;-78
2023/04/19 09:24:57;;;;;;;3.07;2.10;;;12.30;1.00;;;;;;5037603;28;20561;-78
2023/04/19 09:27:27;;;;;;;3.33;2.33;;;12.60;1.00;;;;;;5039378;28;20176;-78
2023/04/19 09:29:55;;;;;;;6.23;2.87;;;12.30;1.00;;;;;;5039822;28;20260;-77
2023/04/19 09:32:21;;;;;;;6.27;2.60;;;12.40;1.00;;;;;;5037141;28;20176;-77
2023/04/19 09:34:51;;;;;;;5.53;2.57;;;12.60;1.00;;;;;;5039398;28;20367;-78
2023/04/19 09:37:16;;;;;;;4.37;2.57;;;12.80;1.00;;;;;;5037303;28;20180;-79
2023/04/19 09:39:42;;;;;;;4.77;2.30;;;12.80;99.90;;;;;;5037495;28;20172;-77
2023/04/19 09:42:08;;;;;;;6.00;2.50;;;12.60;1.00;;;;;;5038571;28;20269;-80
2023/04/19 09:44:34;;;;;;;5.23;2.13;;;12.60;1.00;;;;;;5034666;28;20613;-79
2023/04/19 09:47:00;;;;;;;4.50;2.50;;;12.60;99.90;;;;;;5039560;28;20179;-81
2023/04/19 09:49:26;;;;;;;6.20;2.07;;;12.70;1.00;;;;;;5036645;28;20176;-81
2023/04/19 09:51:55;;;;;;;5.70;1.90;;;12.60;99.90;;;;;;5038299;28;20176;-81
2023/04/19 09:54:23;;;;;;;2.90;1.60;;;12.70;35.10;;;;;;5037665;28;20203;-81
2023/04/19 09:56:49;;;;;;;5.40;1.83;;;12.60;99.90;;;;;;5037855;28;20164;-83
2023/04/19 09:59:15;;;;;;;2.83;1.70;;;12.70;99.90;;;;;;5036171;28;20268;-81
2023/04/19 10:01:53;;;;;;;3.23;1.97;;;12.80;99.90;;;;;;5037191;28;20196;-79
2023/04/19 10:04:23;;;;;;;4.63;1.30;;;13.00;1.00;;;;;;5036700;28;20199;-79
2023/04/19 10:06:50;;;;;;;2.50;1.60;;;13.00;99.90;;;;;;5037542;28;20581;-79
2023/04/19 10:09:20;;;;;;;3.57;1.63;;;13.10;99.90;;;;;;5038785;28;20172;-80
2023/04/19 10:11:51;;;;;;;4.27;1.70;;;13.10;26.70;;;;;;5036280;28;20247;-79
2023/04/19 10:14:21;;;;;;;2.43;0.93;;;13.10;1.00;;;;;;5036651;28;20215;-79
2023/04/19 10:16:47;;;;;;;4.03;1.40;;;13.10;1.00;;;;;;5034388;28;20164;-78
2023/04/19 10:19:17;;;;;;;2.20;1.13;;;13.10;99.90;;;;;;5039214;28;20640;-79
2023/04/19 10:21:46;;;;;;;4.73;1.43;;;13.10;1.00;;;;;;5039378;28;20182;-79
2023/04/19 10:24:12;;;;;;;2.70;1.20;;;13.10;1.00;;;;;;5036008;28;20223;-79
2023/04/19 10:27:11;;;;;;;2.17;1.33;;;13.10;1.00;;;;;;5038808;28;20317;-79
2023/04/19 10:29:56;;;;;;;1.73;1.40;;;13.10;99.90;;;;;;5036000;28;20528;-79
2023/04/19 10:32:23;;;;;;;2.93;1.40;;;13.20;99.90;;;;;;5035899;28;20621;-78
2023/04/19 10:34:53;;;;;;;1.97;1.23;;;13.10;1.00;;;;;;5033424;28;20215;-79
2023/04/19 10:37:22;;;;;;;2.13;1.37;;;13.30;1.00;;;;;;5035231;28;20173;-79
2023/04/19 10:39:48;;;;;;;2.80;1.60;;;13.40;1.00;;;;;;5033268;28;20172;-79
2023/04/19 10:42:13;;;;;;;2.63;1.47;;;13.50;99.90;;;;;;5033820;28;20180;-78
2023/04/19 10:44:39;;;;;;;3.07;1.30;;;13.40;99.90;;;;;;5034645;28;20196;-79
2023/04/19 10:47:05;;;;;;;1.63;1.50;;;13.40;1.00;;;;;;5034744;28;20579;-79
2023/04/19 10:49:30;;;;;;;1.77;1.40;;;13.50;1.00;;;;;;5034238;28;20670;-79
2023/04/19 10:51:59;;;;;;;3.97;1.83;;;13.60;99.90;;;;;;5035662;28;20541;-79
2023/04/19 10:54:38;;;;;;;2.77;1.77;;;13.60;99.90;;;;;;5044804;28;20603;-78
2023/04/19 10:57:05;;;;;;;2.60;1.70;;;13.60;99.90;;;;;;5044579;28;20268;-79
2023/04/19 10:59:37;;;;;;;4.47;1.73;;;13.50;99.90;;;;;;5047492;28;20171;-78
2023/04/19 11:02:21;;;;;;;3.60;2.00;;;13.40;99.90;;;;;;5051846;28;20176;-79
2023/04/19 11:04:49;;;;;;;5.27;2.10;;;13.40;1.00;;;;;;5046158;28;20191;-79
2023/04/19 11:07:22;;;;;;;3.40;2.03;;;13.40;99.90;;;;;;5043323;28;20255;-78
2023/04/19 11:09:48;;;;;;;2.80;2.20;;;13.40;1.00;;;;;;5043135;28;20157;-79
2023/04/19 11:12:17;;;;;;;2.80;2.23;;;13.50;1.00;;;;;;5042869;28;20188;-80
2023/04/19 11:14:54;;;;;;;3.93;2.13;;;13.60;1.00;;;;;;5038662;28;20246;-79
2023/04/19 11:17:25;;;;;;;3.97;2.10;;;13.60;1.00;;;;;;5037191;28;20168;-78
2023/04/19 11:20:10;;;;;;;4.53;2.40;;;13.60;1.00;;;;;;5038617;28;20164;-78
2023/04/19 11:22:40;;;;;;;2.60;2.00;;;13.70;1.00;;;;;;5036951;28;20174;-78
2023/04/19 11:25:17;;;;;;;3.70;1.90;;;13.70;1.00;;;;;;5037268;28;20200;-78
2023/04/19 11:27:45;;;;;;;4.70;2.37;;;13.70;99.90;;;;;;5038044;28;20444;-78
2023/04/19 11:30:26;;;;;;;2.70;1.83;;;13.70;1.00;;;;;;5038045;28;20719;-79
2023/04/19 11:32:54;;;;;;;3.80;2.00;;;13.70;1.00;;;;;;5039033;28;20157;-79
2023/04/19 11:35:21;;;;;;;2.30;1.90;;;13.80;99.90;;;;;;5038051;28;20203;-79
2023/04/19 11:37:48;;;;;;;5.80;2.00;;;13.90;1.00;;;;;;5038025;28;20180;-79
2023/04/19 11:40:15;;;;;;;5.70;1.80;;;14.00;99.90;;;;;;5038375;28;20168;-79
2023/04/19 11:42:41;;;;;;;1.93;1.50;;;14.10;99.90;;;;;;5036486;28;20574;-79
2023/04/19 11:45:08;;;;;;;3.43;1.70;;;14.10;99.90;;;;;;5036423;28;20207;-79
2023/04/19 11:47:33;;;;;;;2.97;1.87;;;14.10;99.90;;;;;;5036540;28;20180;-78
2023/04/19 11:50:32;;;;;;;6.17;2.37;;;14.20;99.90;;;;;;5036814;28;20183;-79
2023/04/19 11:52:58;;;;;;;2.40;2.20;;;14.20;99.90;;;;;;5035462;28;20334;-79
2023/04/19 11:55:25;;;;;;;2.50;1.70;;;14.20;99.90;;;;;;5038058;28;20200;-78
2023/04/19 11:57:50;;;;;;;3.93;2.03;;;14.10;99.90;;;;;;5036085;28;20551;-78
2023/04/19 12:00:27;;;;;;;7.43;1.90;;;14.20;99.90;;;;;;5039461;28;20177;-80
2023/04/19 12:02:53;;;;;;;5.27;2.20;;;14.20;99.90;;;;;;5039189;28;20163;-79
2023/04/19 12:05:18;;;;;;;2.53;1.97;;;14.30;99.90;;;;;;5039139;28;20199;-78
2023/04/19 12:08:02;;;;;;;3.90;2.50;;;14.40;99.90;;;;;;5036731;28;20275;-79
2023/04/19 12:10:27;;;;;;;6.17;2.20;;;14.30;99.90;;;;;;5036392;28;20180;-79
2023/04/19 12:12:53;;;;;;;3.60;2.20;;;14.30;99.90;;;;;;5036317;28;20474;-78
2023/04/19 12:15:19;;;;;;;3.57;2.13;;;14.40;99.90;;;;;;5035507;28;20540;-79
2023/04/19 12:18:03;;;;;;;2.23;1.93;;;14.40;99.90;;;;;;5036424;28;20274;-79
2023/04/19 12:20:34;;;;;;;2.63;1.90;;;14.40;99.90;;;;;;5038378;28;20237;-79
2023/04/19 12:23:00;;;;;;;3.73;2.43;;;14.50;99.90;;;;;;5035898;28;20538;-78
2023/04/19 12:25:32;;;;;;;3.93;2.03;;;14.50;99.90;;;;;;5036334;28;20192;-78
2023/04/19 12:27:59;;;;;;;2.70;1.93;;;14.50;99.90;;;;;;5037947;28;20172;-78
2023/04/19 12:30:25;;;;;;;5.40;2.43;;;14.50;99.90;;;;;;5036841;28;20179;-78
2023/04/19 12:32:54;;;;;;;2.73;2.17;;;14.60;99.90;;;;;;5037522;28;20165;-78
2023/04/19 12:35:26;;;;;;;3.43;2.00;;;14.80;99.90;;;;;;5037708;28;20207;-78
2023/04/19 12:37:53;;;;;;;4.23;2.10;;;14.60;99.90;;;;;;5035470;28;20227;-78
2023/04/19 12:40:19;;;;;;;5.83;2.10;;;14.70;99.90;;;;;;5037738;28;20168;-78
2023/04/19 12:42:45;;;;;;;5.07;1.93;;;14.70;99.90;;;;;;5038122;28;20180;-79
2023/04/19 12:45:12;;;;;;;6.80;2.60;;;14.80;99.90;;;;;;5036712;28;20203;-79